Time;durP1;ratioP1;P1;durP2;ratioP2;P2;SDS_P1;SDS_P2;PMS_P1;PMS_P2;Temp;Humidity;BMP_temperature;BMP_pressure;BME280_temperature;BME280_humidity;BME280_pressure;Samples;Min_cycle;Max_cycle;Signal;HPM_P1;HPM_P2
2023/12/24 00:01:44;;;;;;;6.28;2.80;;;;;;;;;;5077168;28;20060;-60
2023/12/24 00:04:11;;;;;;;6.50;2.60;;;;;;;;;;5081031;28;20063;-61
2023/12/24 00:06:39;;;;;;;6.78;2.60;;;;;;;;;;5078862;28;20049;-61
2023/12/24 00:09:06;;;;;;;8.18;2.78;;;;;;;;;;5079174;28;20052;-63
2023/12/24 00:11:33;;;;;;;6.47;3.22;;;;;;;;;;5074539;28;20048;-61
2023/12/24 00:14:00;;;;;;;7.20;3.17;;;;;;;;;;5081634;28;20060;-61
2023/12/24 00:16:26;;;;;;;7.22;3.28;;;;;;;;;;5076551;28;20040;-61
2023/12/24 00:18:53;;;;;;;8.38;2.97;;;;;;;;;;5081108;28;20040;-62
2023/12/24 00:21:20;;;;;;;5.05;3.20;;;;;;;;;;5079533;28;20410;-62
2023/12/24 00:23:49;;;;;;;7.38;2.85;;;;;;;;;;5077811;28;20060;-62
2023/12/24 00:26:16;;;;;;;9.50;3.10;;;;;;;;;;5072070;28;20147;-61
2023/12/24 00:28:44;;;;;;;7.32;3.15;;;;;;;;;;5081476;28;20074;-64
2023/12/24 00:31:10;;;;;;;5.70;2.83;;;;;;;;;;5076633;28;20048;-64
2023/12/24 00:33:37;;;;;;;8.95;3.42;;;;;;;;;;5077182;28;20067;-63
2023/12/24 00:36:04;;;;;;;6.45;2.70;;;;;;;;;;5079159;28;20044;-63
2023/12/24 00:38:31;;;;;;;8.60;2.72;;;;;;;;;;5080659;28;20493;-64
2023/12/24 00:40:59;;;;;;;7.50;2.90;;;;;;;;;;5071719;28;20122;-62
2023/12/24 00:43:26;;;;;;;6.35;3.03;;;;;;;;;;5078996;28;20048;-62
2023/12/24 00:45:53;;;;;;;6.90;2.72;;;;;;;;;;5079169;28;20673;-62
2023/12/24 00:48:19;;;;;;;7.45;3.00;;;;;;;;;;5076557;28;20496;-63
2023/12/24 00:50:46;;;;;;;7.43;2.78;;;;;;;;;;5081102;28;20059;-62
2023/12/24 00:53:13;;;;;;;5.32;2.80;;;;;;;;;;5079707;28;20052;-62
2023/12/24 00:55:41;;;;;;;5.93;2.60;;;;;;;;;;5077424;28;20048;-64
2023/12/24 00:58:09;;;;;;;6.45;3.03;;;;;;;;;;5080449;28;20060;-62
2023/12/24 01:00:37;;;;;;;6.20;2.70;;;;;;;;;;5078372;28;20864;-62
2023/12/24 01:03:03;;;;;;;9.60;2.70;;;;;;;;;;5076576;28;20048;-64
2023/12/24 01:05:30;;;;;;;4.63;2.50;;;;;;;;;;5080430;28;20063;-63
2023/12/24 01:07:57;;;;;;;7.20;2.75;;;;;;;;;;5077919;28;20044;-63
2023/12/24 01:10:24;;;;;;;5.93;2.40;;;;;;;;;;5078665;28;20056;-63
2023/12/24 01:12:50;;;;;;;8.02;2.63;;;;;;;;;;5077814;28;20048;-62
2023/12/24 01:15:19;;;;;;;8.10;2.53;;;;;;;;;;5079704;28;20067;-64
2023/12/24 01:17:45;;;;;;;6.15;2.70;;;;;;;;;;5077166;28;20048;-63
2023/12/24 01:20:13;;;;;;;6.32;2.50;;;;;;;;;;5080691;28;20052;-62
2023/12/24 01:22:40;;;;;;;6.28;2.70;;;;;;;;;;5076975;28;20048;-64
2023/12/24 01:25:07;;;;;;;6.25;2.40;;;;;;;;;;5079110;28;20055;-63
2023/12/24 01:27:34;;;;;;;6.82;2.85;;;;;;;;;;5077806;28;21642;-63
2023/12/24 01:30:00;;;;;;;5.57;2.85;;;;;;;;;;5080589;28;20044;-63
2023/12/24 01:32:29;;;;;;;7.20;2.83;;;;;;;;;;5079614;28;20060;-63
2023/12/24 01:34:55;;;;;;;4.55;1.98;;;;;;;;;;5081965;28;20055;-62
2023/12/24 01:37:22;;;;;;;5.82;2.00;;;;;;;;;;5073640;28;20051;-63
2023/12/24 01:39:49;;;;;;;8.18;2.38;;;;;;;;;;5071352;28;20067;-63
2023/12/24 01:42:16;;;;;;;3.58;1.95;;;;;;;;;;5071634;28;20049;-63
2023/12/24 01:44:42;;;;;;;5.40;2.13;;;;;;;;;;5071897;28;20056;-63
2023/12/24 01:47:09;;;;;;;4.97;2.10;;;;;;;;;;5073433;28;20044;-63
2023/12/24 01:49:37;;;;;;;3.80;1.92;;;;;;;;;;5075869;28;20053;-63
2023/12/24 01:52:05;;;;;;;5.30;2.03;;;;;;;;;;5075685;28;20052;-63
2023/12/24 01:54:32;;;;;;;4.97;1.70;;;;;;;;;;5075741;28;20052;-63
2023/12/24 01:56:59;;;;;;;5.20;1.63;;;;;;;;;;5075697;28;20049;-63
2023/12/24 01:59:27;;;;;;;3.58;1.80;;;;;;;;;;5075706;28;20056;-63
2023/12/24 02:01:53;;;;;;;5.80;1.80;;;;;;;;;;5075619;28;20071;-63
2023/12/24 02:04:20;;;;;;;3.17;1.48;;;;;;;;;;5074882;28;20505;-63
2023/12/24 02:06:50;;;;;;;4.25;1.40;;;;;;;;;;5074861;28;20044;-63
2023/12/24 02:09:16;;;;;;;2.38;1.35;;;;;;;;;;5075466;28;20053;-63
2023/12/24 02:11:43;;;;;;;3.90;1.63;;;;;;;;;;5075364;28;20052;-64
2023/12/24 02:14:10;;;;;;;6.28;1.70;;;;;;;;;;5075412;28;20058;-63
2023/12/24 02:16:39;;;;;;;4.03;1.83;;;;;;;;;;5084862;28;20052;-63
2023/12/24 02:19:07;;;;;;;4.97;2.25;;;;;;;;;;5095634;28;20477;-63
2023/12/24 02:21:35;;;;;;;4.38;1.90;;;;;;;;;;5095515;28;20063;-62
2023/12/24 02:24:02;;;;;;;2.97;1.55;;;;;;;;;;5095405;28;20052;-63
2023/12/24 02:26:31;;;;;;;4.68;1.60;;;;;;;;;;5095307;28;20055;-63
2023/12/24 02:29:02;;;;;;;4.38;1.90;;;;;;;;;;5076056;28;20053;-63
2023/12/24 02:31:31;;;;;;;4.90;1.60;;;;;;;;;;5080734;28;20119;-63
2023/12/24 02:33:58;;;;;;;4.88;1.70;;;;;;;;;;5095373;28;20047;-63
2023/12/24 02:36:26;;;;;;;6.65;1.95;;;;;;;;;;5095169;28;20055;-63
2023/12/24 02:38:57;;;;;;;5.07;1.55;;;;;;;;;;5095149;28;20071;-63
2023/12/24 02:41:24;;;;;;;6.82;1.65;;;;;;;;;;5095246;28;20067;-63
2023/12/24 02:43:51;;;;;;;8.40;1.95;;;;;;;;;;5095192;28;20059;-62
2023/12/24 02:46:18;;;;;;;6.72;1.98;;;;;;;;;;5085897;28;20049;-62
2023/12/24 02:48:44;;;;;;;2.28;1.38;;;;;;;;;;5074565;28;20056;-63
2023/12/24 02:51:11;;;;;;;3.60;1.63;;;;;;;;;;5074402;28;20052;-62
2023/12/24 02:53:38;;;;;;;6.68;1.90;;;;;;;;;;5074483;28;20044;-63
2023/12/24 02:56:06;;;;;;;3.30;1.42;;;;;;;;;;5074314;28;20053;-63
2023/12/24 02:58:35;;;;;;;4.72;1.42;;;;;;;;;;5074186;28;20064;-63
2023/12/24 03:01:01;;;;;;;3.33;1.50;;;;;;;;;;5077101;28;20048;-62
2023/12/24 03:03:28;;;;;;;4.30;1.50;;;;;;;;;;5094371;28;20052;-63
2023/12/24 03:05:55;;;;;;;7.80;1.48;;;;;;;;;;5094541;28;20059;-62
2023/12/24 03:08:22;;;;;;;5.35;1.65;;;;;;;;;;5094404;28;20048;-63
2023/12/24 03:10:49;;;;;;;3.50;1.50;;;;;;;;;;5094558;28;20413;-62
2023/12/24 03:13:17;;;;;;;4.18;1.60;;;;;;;;;;5094143;28;20511;-63
2023/12/24 03:15:44;;;;;;;4.90;1.90;;;;;;;;;;5091278;28;20071;-62
2023/12/24 03:18:11;;;;;;;7.95;2.15;;;;;;;;;;5093925;28;20056;-61
2023/12/24 03:20:38;;;;;;;4.18;1.60;;;;;;;;;;5093716;28;20052;-61
2023/12/24 03:23:03;;;;;;;4.13;1.70;;;;;;;;;;5089444;28;20045;-61
2023/12/24 03:25:30;;;;;;;3.50;1.70;;;;;;;;;;5088816;28;20413;-62
2023/12/24 03:27:57;;;;;;;5.68;2.08;;;;;;;;;;5093996;28;20048;-60
2023/12/24 03:30:25;;;;;;;5.78;2.22;;;;;;;;;;5093885;28;20056;-60
2023/12/24 03:32:52;;;;;;;3.42;1.80;;;;;;;;;;5074604;28;20048;-60
2023/12/24 03:35:19;;;;;;;4.65;1.60;;;;;;;;;;5074041;28;20059;-60
2023/12/24 03:37:45;;;;;;;2.90;1.45;;;;;;;;;;5073766;28;20055;-60
2023/12/24 03:40:13;;;;;;;4.35;1.45;;;;;;;;;;5073946;28;20406;-60
2023/12/24 03:42:39;;;;;;;3.00;1.40;;;;;;;;;;5073301;28;20060;-60
2023/12/24 03:45:06;;;;;;;2.75;0.95;;;;;;;;;;5073763;28;20052;-60
2023/12/24 03:47:35;;;;;;;1.90;1.00;;;;;;;;;;5089932;28;20382;-60
2023/12/24 03:50:01;;;;;;;1.95;0.90;;;;;;;;;;5093743;28;20060;-61
2023/12/24 03:52:28;;;;;;;2.17;0.80;;;;;;;;;;5093647;28;20063;-60
2023/12/24 03:54:55;;;;;;;3.72;0.90;;;;;;;;;;5093903;28;20051;-61
2023/12/24 03:57:22;;;;;;;3.05;0.60;;;;;;;;;;5092981;28;20062;-61
2023/12/24 03:59:49;;;;;;;3.33;0.90;;;;;;;;;;5093340;28;20056;-60
2023/12/24 04:02:16;;;;;;;2.28;0.60;;;;;;;;;;5090893;28;20059;-60
2023/12/24 04:04:47;;;;;;;3.92;0.77;;;;;;;;;;5093185;28;20059;-60
2023/12/24 04:07:15;;;;;;;0.90;0.50;;;;;;;;;;5093385;28;20048;-61
2023/12/24 04:09:41;;;;;;;3.15;1.10;;;;;;;;;;5092126;28;20066;-60
2023/12/24 04:12:09;;;;;;;1.00;0.50;;;;;;;;;;5092733;28;20056;-61
2023/12/24 04:14:36;;;;;;;1.73;0.80;;;;;;;;;;5093293;28;20056;-60
2023/12/24 04:17:03;;;;;;;1.05;0.50;;;;;;;;;;5089630;28;20064;-60
2023/12/24 04:19:30;;;;;;;0.82;0.52;;;;;;;;;;5093085;28;20134;-61
2023/12/24 04:21:58;;;;;;;1.05;0.57;;;;;;;;;;5093064;28;20063;-61
2023/12/24 04:24:25;;;;;;;1.00;0.60;;;;;;;;;;5092170;28;20063;-60
2023/12/24 04:26:52;;;;;;;1.02;0.50;;;;;;;;;;5072687;28;20053;-60
2023/12/24 04:29:19;;;;;;;1.13;0.60;;;;;;;;;;5072705;28;20420;-60
2023/12/24 04:31:46;;;;;;;1.23;0.60;;;;;;;;;;5073402;28;20060;-60
2023/12/24 04:34:12;;;;;;;2.22;0.70;;;;;;;;;;5073112;28;20056;-60
2023/12/24 04:36:39;;;;;;;1.05;0.60;;;;;;;;;;5072611;28;20071;-60
2023/12/24 04:39:07;;;;;;;0.93;0.57;;;;;;;;;;5073124;28;20059;-60
2023/12/24 04:41:34;;;;;;;1.10;0.63;;;;;;;;;;5072517;28;20063;-60
2023/12/24 04:44:01;;;;;;;1.17;0.73;;;;;;;;;;5072934;28;20422;-60
2023/12/24 04:46:28;;;;;;;1.10;0.75;;;;;;;;;;5079280;28;20052;-59
2023/12/24 04:48:54;;;;;;;1.75;0.75;;;;;;;;;;5092276;28;20074;-59
2023/12/24 04:51:22;;;;;;;1.40;0.90;;;;;;;;;;5092257;28;20052;-59
2023/12/24 04:53:48;;;;;;;1.48;1.00;;;;;;;;;;5092369;28;20048;-60
2023/12/24 04:56:22;;;;;;;1.95;0.80;;;;;;;;;;5092760;28;20409;-60
2023/12/24 04:58:51;;;;;;;1.60;0.80;;;;;;;;;;5092951;28;20055;-60
2023/12/24 05:01:18;;;;;;;1.20;0.70;;;;;;;;;;5089681;28;20051;-60
2023/12/24 05:03:44;;;;;;;1.75;0.80;;;;;;;;;;5091685;28;20059;-59
2023/12/24 05:06:11;;;;;;;1.92;1.00;;;;;;;;;;5072189;28;20052;-60
2023/12/24 05:08:39;;;;;;;1.60;0.90;;;;;;;;;;5072471;28;20059;-59
2023/12/24 05:11:06;;;;;;;1.40;0.77;;;;;;;;;;5072485;28;20064;-60
2023/12/24 05:13:34;;;;;;;1.63;0.90;;;;;;;;;;5072340;28;20413;-60
2023/12/24 05:16:01;;;;;;;1.30;0.80;;;;;;;;;;5074879;28;20504;-60
2023/12/24 05:18:28;;;;;;;1.33;0.80;;;;;;;;;;5092852;28;20067;-60
2023/12/24 05:20:54;;;;;;;1.70;0.85;;;;;;;;;;5092502;28;20060;-60
2023/12/24 05:23:21;;;;;;;2.60;0.70;;;;;;;;;;5096267;28;20485;-60
2023/12/24 05:25:48;;;;;;;1.38;0.80;;;;;;;;;;5096344;28;20052;-60
2023/12/24 05:28:16;;;;;;;1.15;0.70;;;;;;;;;;5083770;28;20134;-60
2023/12/24 05:30:44;;;;;;;1.42;0.68;;;;;;;;;;5075771;28;20053;-61
2023/12/24 05:33:11;;;;;;;1.40;0.70;;;;;;;;;;5076390;28;20059;-60
2023/12/24 05:35:37;;;;;;;1.67;0.50;;;;;;;;;;5076409;28;20063;-60
2023/12/24 05:38:04;;;;;;;0.98;0.55;;;;;;;;;;5075819;28;20443;-60
2023/12/24 05:40:31;;;;;;;0.90;0.50;;;;;;;;;;5076120;28;20063;-60
2023/12/24 05:42:58;;;;;;;1.00;0.50;;;;;;;;;;5075717;28;20053;-60
2023/12/24 05:45:25;;;;;;;0.77;0.40;;;;;;;;;;5075628;28;20056;-62
2023/12/24 05:47:53;;;;;;;1.00;0.60;;;;;;;;;;5094282;28;20055;-60
2023/12/24 05:50:20;;;;;;;0.77;0.47;;;;;;;;;;5095770;28;20052;-60
2023/12/24 05:52:49;;;;;;;1.70;0.40;;;;;;;;;;5095728;28;20074;-60
2023/12/24 05:55:16;;;;;;;0.90;0.52;;;;;;;;;;5096126;28;20056;-61
2023/12/24 05:57:43;;;;;;;0.80;0.50;;;;;;;;;;5095100;28;20052;-61
2023/12/24 06:00:10;;;;;;;0.90;0.50;;;;;;;;;;5095980;28;20071;-61
2023/12/24 06:02:37;;;;;;;0.95;0.50;;;;;;;;;;5079052;28;20049;-61
2023/12/24 06:05:05;;;;;;;0.55;0.40;;;;;;;;;;5075558;28;20063;-61
2023/12/24 06:07:32;;;;;;;0.68;0.40;;;;;;;;;;5094662;28;20048;-60
2023/12/24 06:09:59;;;;;;;0.80;0.50;;;;;;;;;;5095182;28;20056;-60
2023/12/24 06:12:26;;;;;;;0.73;0.40;;;;;;;;;;5095218;28;20059;-60
2023/12/24 06:14:52;;;;;;;0.50;0.30;;;;;;;;;;5077936;28;20056;-60
2023/12/24 06:17:19;;;;;;;1.05;0.40;;;;;;;;;;5076456;28;20056;-61
2023/12/24 06:19:46;;;;;;;0.55;0.38;;;;;;;;;;5075016;28;20194;-60
2023/12/24 06:22:14;;;;;;;1.02;0.52;;;;;;;;;;5085623;28;20063;-60
2023/12/24 06:24:41;;;;;;;0.43;0.30;;;;;;;;;;5094601;28;20512;-60
2023/12/24 06:27:08;;;;;;;0.65;0.40;;;;;;;;;;5095018;28;20489;-60
2023/12/24 06:29:37;;;;;;;0.70;0.40;;;;;;;;;;5095461;28;20048;-60
2023/12/24 06:32:04;;;;;;;0.50;0.30;;;;;;;;;;5087926;28;20053;-60
2023/12/24 06:34:31;;;;;;;0.60;0.30;;;;;;;;;;5074778;28;20493;-60
2023/12/24 06:36:58;;;;;;;0.40;0.30;;;;;;;;;;5074953;28;20056;-60
2023/12/24 06:39:26;;;;;;;0.75;0.30;;;;;;;;;;5075044;28;20048;-60
2023/12/24 06:41:54;;;;;;;0.50;0.30;;;;;;;;;;5074744;28;20075;-60
2023/12/24 06:44:22;;;;;;;0.63;0.30;;;;;;;;;;5074810;28;20053;-60
2023/12/24 06:46:48;;;;;;;0.70;0.40;;;;;;;;;;5074704;28;20086;-60
2023/12/24 06:49:15;;;;;;;0.85;0.40;;;;;;;;;;5074682;28;20053;-60
2023/12/24 06:51:42;;;;;;;1.83;0.50;;;;;;;;;;5074823;28;20053;-60
2023/12/24 06:54:09;;;;;;;0.77;0.40;;;;;;;;;;5074723;28;20098;-60
2023/12/24 06:56:37;;;;;;;1.05;0.30;;;;;;;;;;5074135;28;20067;-60
2023/12/24 06:59:04;;;;;;;0.32;0.20;;;;;;;;;;5074238;28;20048;-60
2023/12/24 07:01:31;;;;;;;0.52;0.38;;;;;;;;;;5074208;28;20056;-59
2023/12/24 07:03:58;;;;;;;0.68;0.30;;;;;;;;;;5090158;28;20059;-60
2023/12/24 07:06:25;;;;;;;0.68;0.40;;;;;;;;;;5093870;28;20059;-60
2023/12/24 07:08:52;;;;;;;0.85;0.30;;;;;;;;;;5094666;28;20104;-59
2023/12/24 07:11:19;;;;;;;0.98;0.50;;;;;;;;;;5093692;28;20067;-59
2023/12/24 07:13:47;;;;;;;0.65;0.40;;;;;;;;;;5094124;28;20059;-59
2023/12/24 07:16:14;;;;;;;0.70;0.40;;;;;;;;;;5090516;28;20067;-60
2023/12/24 07:18:41;;;;;;;1.02;0.50;;;;;;;;;;5081487;28;20393;-59
2023/12/24 07:21:08;;;;;;;1.00;0.50;;;;;;;;;;5073696;28;20060;-60
2023/12/24 07:23:34;;;;;;;1.05;0.50;;;;;;;;;;5073604;28;20052;-59
2023/12/24 07:26:01;;;;;;;0.43;0.30;;;;;;;;;;5073939;28;20052;-60
2023/12/24 07:28:28;;;;;;;1.48;0.60;;;;;;;;;;5073504;28;20127;-59
2023/12/24 07:30:56;;;;;;;1.73;0.60;;;;;;;;;;5073449;28;20462;-59
2023/12/24 07:33:23;;;;;;;0.90;0.47;;;;;;;;;;5073603;28;20139;-60
2023/12/24 07:35:50;;;;;;;0.90;0.40;;;;;;;;;;5086484;28;20056;-59
2023/12/24 07:38:17;;;;;;;0.73;0.40;;;;;;;;;;5092889;28;20457;-59
2023/12/24 07:40:44;;;;;;;5.97;2.25;;;;;;;;;;5093737;28;20059;-59
2023/12/24 07:43:11;;;;;;;0.52;0.32;;;;;;;;;;5091416;28;20051;-60
2023/12/24 07:45:38;;;;;;;1.42;0.70;;;;;;;;;;5089517;28;20056;-60
2023/12/24 07:48:08;;;;;;;1.10;0.60;;;;;;;;;;5073014;28;20060;-60
2023/12/24 07:50:35;;;;;;;0.88;0.40;;;;;;;;;;5073571;28;20083;-59
2023/12/24 07:53:01;;;;;;;1.10;0.60;;;;;;;;;;5073297;28;20056;-60
2023/12/24 07:55:28;;;;;;;1.17;0.60;;;;;;;;;;5073118;28;20083;-60
2023/12/24 07:57:55;;;;;;;0.73;0.43;;;;;;;;;;5073239;28;20466;-60
2023/12/24 08:00:22;;;;;;;1.02;0.60;;;;;;;;;;5091677;28;20052;-60
2023/12/24 08:02:49;;;;;;;0.88;0.50;;;;;;;;;;5073898;28;20079;-60
2023/12/24 08:05:17;;;;;;;1.35;0.70;;;;;;;;;;5072356;28;20048;-60
2023/12/24 08:07:44;;;;;;;1.20;0.70;;;;;;;;;;5072194;28;20489;-60
2023/12/24 08:10:11;;;;;;;0.90;0.60;;;;;;;;;;5072740;28;20048;-59
2023/12/24 08:12:37;;;;;;;1.13;0.70;;;;;;;;;;5072333;28;20075;-60
2023/12/24 08:15:05;;;;;;;0.85;0.57;;;;;;;;;;5072472;28;20048;-60
2023/12/24 08:17:32;;;;;;;1.10;0.60;;;;;;;;;;5081841;28;20047;-60
2023/12/24 08:19:59;;;;;;;1.10;0.52;;;;;;;;;;5072433;28;20055;-60
2023/12/24 08:22:27;;;;;;;1.20;0.60;;;;;;;;;;5086779;28;20059;-60
2023/12/24 08:24:53;;;;;;;1.23;0.65;;;;;;;;;;5092860;28;20097;-60
2023/12/24 08:27:21;;;;;;;0.90;0.52;;;;;;;;;;5092901;28;20386;-59
2023/12/24 08:29:48;;;;;;;1.90;0.70;;;;;;;;;;5092675;28;20048;-59
2023/12/24 08:32:15;;;;;;;1.20;0.70;;;;;;;;;;5082526;28;20517;-60
2023/12/24 08:34:42;;;;;;;1.90;0.80;;;;;;;;;;5072463;28;20473;-59
2023/12/24 08:37:09;;;;;;;1.67;0.70;;;;;;;;;;5083664;28;20405;-60
2023/12/24 08:39:37;;;;;;;1.10;0.70;;;;;;;;;;5093249;28;20139;-60
2023/12/24 08:42:04;;;;;;;1.40;0.70;;;;;;;;;;5092726;28;20052;-61
2023/12/24 08:44:31;;;;;;;2.03;0.70;;;;;;;;;;5093073;28;20051;-60
2023/12/24 08:46:57;;;;;;;1.92;0.63;;;;;;;;;;5090425;28;20071;-60
2023/12/24 08:49:24;;;;;;;1.55;0.90;;;;;;;;;;5091620;28;20055;-60
2023/12/24 08:51:51;;;;;;;1.92;0.65;;;;;;;;;;5084207;28;20052;-60
2023/12/24 08:54:18;;;;;;;1.40;0.93;;;;;;;;;;5072399;28;20067;-60
2023/12/24 08:56:46;;;;;;;1.83;0.90;;;;;;;;;;5073734;28;20472;-60
2023/12/24 08:59:13;;;;;;;1.65;0.70;;;;;;;;;;5091925;28;20048;-60
2023/12/24 09:01:42;;;;;;;3.30;1.42;;;;;;;;;;5081170;28;20056;-60
2023/12/24 09:04:09;;;;;;;1.00;0.63;;;;;;;;;;5072022;28;20059;-61
2023/12/24 09:06:37;;;;;;;1.05;0.65;;;;;;;;;;5073048;28;20057;-61
2023/12/24 09:09:04;;;;;;;1.42;0.70;;;;;;;;;;5072074;28;20049;-60
2023/12/24 09:11:31;;;;;;;2.13;1.27;;;;;;;;;;5087745;28;20055;-60
2023/12/24 09:13:59;;;;;;;1.00;0.50;;;;;;;;;;5080608;28;20104;-60
2023/12/24 09:16:26;;;;;;;1.25;0.60;;;;;;;;;;5081336;28;20416;-60
2023/12/24 09:18:52;;;;;;;1.13;0.60;;;;;;;;;;5092218;28;20052;-61
2023/12/24 09:21:19;;;;;;;1.75;0.70;;;;;;;;;;5078595;28;20053;-60
2023/12/24 09:23:46;;;;;;;1.45;0.70;;;;;;;;;;5080733;28;20048;-60
2023/12/24 09:26:13;;;;;;;1.38;0.60;;;;;;;;;;5092271;28;20485;-60
2023/12/24 09:28:40;;;;;;;1.50;0.70;;;;;;;;;;5092380;28;20051;-61
2023/12/24 09:31:08;;;;;;;1.45;0.70;;;;;;;;;;5089610;28;20412;-61
2023/12/24 09:33:36;;;;;;;2.40;0.70;;;;;;;;;;5091877;28;20063;-61
2023/12/24 09:36:07;;;;;;;1.40;0.85;;;;;;;;;;5092346;28;20048;-62
2023/12/24 09:38:33;;;;;;;1.65;0.65;;;;;;;;;;5092233;28;20052;-62
2023/12/24 09:41:01;;;;;;;1.30;0.70;;;;;;;;;;5091960;28;20477;-62
2023/12/24 09:43:30;;;;;;;1.42;0.50;;;;;;;;;;5092081;28;20086;-61
2023/12/24 09:45:57;;;;;;;1.20;0.65;;;;;;;;;;5091782;28;20052;-62
2023/12/24 09:48:25;;;;;;;1.30;0.80;;;;;;;;;;5088581;28;20063;-62
2023/12/24 09:50:52;;;;;;;1.20;0.70;;;;;;;;;;5091678;28;20048;-62
2023/12/24 09:53:19;;;;;;;1.42;0.70;;;;;;;;;;5092065;28;20066;-62
2023/12/24 09:55:45;;;;;;;1.00;0.60;;;;;;;;;;5092075;28;20052;-62
2023/12/24 09:58:12;;;;;;;1.65;0.60;;;;;;;;;;5086428;28;20426;-62
2023/12/24 10:00:39;;;;;;;1.33;0.60;;;;;;;;;;5072028;28;20053;-62
2023/12/24 10:03:06;;;;;;;2.35;0.73;;;;;;;;;;5072039;28;20056;-63
2023/12/24 10:05:34;;;;;;;1.27;0.70;;;;;;;;;;5071478;28;20052;-62
2023/12/24 10:08:02;;;;;;;1.73;0.80;;;;;;;;;;5072629;28;20057;-62
2023/12/24 10:10:30;;;;;;;1.80;0.80;;;;;;;;;;5075228;28;20048;-62
2023/12/24 10:13:03;;;;;;;1.42;0.75;;;;;;;;;;5075223;28;20048;-62
2023/12/24 10:15:32;;;;;;;1.00;0.60;;;;;;;;;;5081037;28;20081;-62
2023/12/24 10:18:14;;;;;;;1.13;0.50;;;;;;;;;;5088047;28;20059;-62
2023/12/24 10:20:42;;;;;;;1.23;0.65;;;;;;;;;;5083897;28;20409;-61
2023/12/24 10:23:09;;;;;;;2.33;1.00;;;;;;;;;;5083968;28;20063;-62
2023/12/24 10:25:36;;;;;;;1.33;0.60;;;;;;;;;;5078898;28;20040;-62
2023/12/24 10:28:05;;;;;;;1.00;0.60;;;;;;;;;;5076537;28;20048;-61
2023/12/24 10:30:31;;;;;;;0.90;0.60;;;;;;;;;;5076170;28;20045;-61
2023/12/24 10:33:08;;;;;;;1.67;0.82;;;;;;;;;;5080717;28;20518;-61
2023/12/24 10:35:35;;;;;;;1.90;1.08;;;;;;;;;;5080253;28;20486;-60
2023/12/24 10:38:06;;;;;;;1.88;1.10;;;;;;;;;;5082719;28;20044;-61
2023/12/24 10:40:34;;;;;;;1.73;1.13;;;;;;;;;;5078058;28;20051;-61
2023/12/24 10:43:01;;;;;;;2.17;1.00;;;;;;;;;;5091841;28;20056;-61
2023/12/24 10:45:28;;;;;;;1.85;0.70;;;;;;;;;;5090554;28;20052;-62
2023/12/24 10:47:55;;;;;;;1.27;0.70;;;;;;;;;;5078647;28;20493;-60
2023/12/24 10:50:22;;;;;;;0.88;0.50;;;;;;;;;;5092346;28;20496;-61
2023/12/24 10:52:49;;;;;;;1.20;0.60;;;;;;;;;;5081609;28;20417;-62
2023/12/24 10:55:16;;;;;;;1.27;0.68;;;;;;;;;;5082811;28;20051;-60
2023/12/24 10:57:52;;;;;;;1.67;0.80;;;;;;;;;;5082191;28;20055;-61
2023/12/24 11:00:21;;;;;;;2.05;1.00;;;;;;;;;;5089392;28;20059;-60
2023/12/24 11:02:51;;;;;;;1.90;0.90;;;;;;;;;;5081877;28;20059;-60
2023/12/24 11:05:46;;;;;;;1.05;0.80;;;;;;;;;;5084699;28;20048;-60
2023/12/24 11:08:28;;;;;;;2.67;0.70;;;;;;;;;;5083648;28;20060;-59
2023/12/24 11:10:55;;;;;;;1.40;0.90;;;;;;;;;;5079871;28;20055;-60
2023/12/24 11:13:43;;;;;;;1.55;1.08;;;;;;;;;;5078834;28;20059;-60
2023/12/24 11:16:11;;;;;;;1.73;1.10;;;;;;;;;;5075683;28;20519;-60
2023/12/24 11:18:42;;;;;;;3.72;2.60;;;;;;;;;;5074039;28;20048;-60
2023/12/24 11:21:10;;;;;;;2.08;1.33;;;;;;;;;;5081493;28;20512;-60
2023/12/24 11:23:37;;;;;;;1.98;1.20;;;;;;;;;;5094286;28;20056;-60
2023/12/24 11:26:28;;;;;;;3.13;1.70;;;;;;;;;;5083092;28;20055;-60
2023/12/24 11:28:55;;;;;;;1.85;1.25;;;;;;;;;;5075705;28;21418;-60
2023/12/24 11:31:25;;;;;;;2.42;1.30;;;;;;;;;;5083963;28;20048;-60
2023/12/24 11:33:54;;;;;;;3.10;1.98;;;;;;;;;;5094087;28;20389;-59
2023/12/24 11:36:22;;;;;;;2.22;1.50;;;;;;;;;;5091519;28;20044;-59
2023/12/24 11:38:54;;;;;;;1.98;1.05;;;;;;;;;;5092414;28;20513;-60
2023/12/24 11:41:21;;;;;;;1.60;1.00;;;;;;;;;;5090490;28;20048;-60
2023/12/24 11:43:52;;;;;;;2.10;1.33;;;;;;;;;;5074879;28;20052;-60
2023/12/24 11:46:19;;;;;;;2.00;1.50;;;;;;;;;;5082205;28;20508;-60
2023/12/24 11:48:47;;;;;;;2.08;1.10;;;;;;;;;;5073893;28;20045;-60
2023/12/24 11:51:14;;;;;;;1.60;1.10;;;;;;;;;;5073217;28;20048;-60
2023/12/24 11:53:45;;;;;;;1.30;0.90;;;;;;;;;;5079167;28;20052;-61
2023/12/24 11:56:13;;;;;;;1.52;0.95;;;;;;;;;;5079699;28;20048;-60
2023/12/24 11:58:41;;;;;;;2.05;1.10;;;;;;;;;;5073424;28;20048;-61
2023/12/24 12:01:09;;;;;;;1.13;0.73;;;;;;;;;;5080173;28;20051;-61
2023/12/24 12:03:36;;;;;;;1.60;0.90;;;;;;;;;;5105107;28;20055;-60
2023/12/24 12:06:05;;;;;;;2.55;0.98;;;;;;;;;;5073990;28;20056;-61
2023/12/24 12:08:32;;;;;;;1.50;0.90;;;;;;;;;;5073158;28;20066;-61
2023/12/24 12:10:59;;;;;;;2.83;0.90;;;;;;;;;;5088182;28;20497;-60
2023/12/24 12:13:26;;;;;;;2.47;0.98;;;;;;;;;;5091587;28;20040;-61
2023/12/24 12:15:53;;;;;;;1.50;0.85;;;;;;;;;;5087131;28;20497;-61
2023/12/24 12:18:20;;;;;;;2.20;1.10;;;;;;;;;;5092999;28;20052;-61
2023/12/24 12:20:47;;;;;;;1.50;0.90;;;;;;;;;;5085901;28;20051;-61
2023/12/24 12:23:18;;;;;;;1.80;0.93;;;;;;;;;;5072970;28;20053;-61
2023/12/24 12:25:45;;;;;;;2.40;1.02;;;;;;;;;;5072529;28;20512;-60
2023/12/24 12:28:12;;;;;;;2.13;1.00;;;;;;;;;;5072730;28;20064;-60
2023/12/24 12:30:39;;;;;;;2.25;1.15;;;;;;;;;;5074255;28;20051;-62
2023/12/24 12:33:06;;;;;;;1.65;1.20;;;;;;;;;;5081894;28;20056;-61
2023/12/24 12:35:33;;;;;;;1.80;1.20;;;;;;;;;;5072965;28;20057;-61
2023/12/24 12:37:59;;;;;;;2.15;1.60;;;;;;;;;;5072736;28;20512;-61
2023/12/24 12:40:28;;;;;;;2.42;1.65;;;;;;;;;;5072863;28;20044;-60
2023/12/24 12:42:55;;;;;;;4.80;1.60;;;;;;;;;;5075848;28;20052;-61
2023/12/24 12:45:22;;;;;;;3.42;1.92;;;;;;;;;;5090802;28;20405;-61
2023/12/24 12:47:49;;;;;;;3.22;1.80;;;;;;;;;;5073327;28;20056;-62
2023/12/24 12:50:15;;;;;;;3.75;2.25;;;;;;;;;;5084180;28;20067;-61
2023/12/24 12:52:42;;;;;;;2.38;2.17;;;;;;;;;;5078354;28;20052;-61
2023/12/24 12:55:11;;;;;;;4.63;2.83;;;;;;;;;;5072716;28;20056;-60
2023/12/24 12:57:41;;;;;;;3.00;2.03;;;;;;;;;;5078451;28;20060;-60
2023/12/24 13:00:09;;;;;;;5.88;2.20;;;;;;;;;;5077638;28;20060;-62
2023/12/24 13:02:36;;;;;;;4.30;2.45;;;;;;;;;;5074419;28;20052;-60
2023/12/24 13:05:04;;;;;;;2.83;1.80;;;;;;;;;;5075317;28;20048;-60
2023/12/24 13:07:31;;;;;;;2.22;1.50;;;;;;;;;;5072731;28;20053;-59
2023/12/24 13:09:58;;;;;;;4.53;2.42;;;;;;;;;;5087611;28;20048;-60
2023/12/24 13:12:25;;;;;;;2.42;1.73;;;;;;;;;;5077311;28;20048;-58
2023/12/24 13:14:56;;;;;;;2.25;1.60;;;;;;;;;;5076659;28;20079;-61
2023/12/24 13:17:23;;;;;;;1.75;1.30;;;;;;;;;;5072840;28;20170;-59
2023/12/24 13:19:50;;;;;;;3.20;1.45;;;;;;;;;;5072447;28;20064;-59
2023/12/24 13:22:17;;;;;;;3.30;1.90;;;;;;;;;;5086930;28;20040;-60
2023/12/24 13:24:44;;;;;;;3.00;1.60;;;;;;;;;;5076366;28;20059;-60
2023/12/24 13:27:10;;;;;;;3.38;1.40;;;;;;;;;;5080263;28;20409;-61
2023/12/24 13:29:37;;;;;;;2.70;1.30;;;;;;;;;;5072741;28;20048;-61
2023/12/24 13:32:06;;;;;;;2.47;1.33;;;;;;;;;;5084824;28;20051;-61
2023/12/24 13:34:33;;;;;;;1.83;1.20;;;;;;;;;;5081145;28;20052;-60
2023/12/24 13:37:01;;;;;;;2.00;1.27;;;;;;;;;;5077998;28;20052;-60
2023/12/24 13:39:28;;;;;;;3.08;1.40;;;;;;;;;;5077530;28;20053;-60
2023/12/24 13:41:56;;;;;;;1.88;1.00;;;;;;;;;;5071858;28;20061;-61
2023/12/24 13:44:22;;;;;;;2.20;0.98;;;;;;;;;;5075547;28;20045;-60
2023/12/24 13:46:49;;;;;;;1.80;1.10;;;;;;;;;;5082192;28;20056;-61
2023/12/24 13:49:17;;;;;;;1.60;1.35;;;;;;;;;;5096221;28;20063;-61
2023/12/24 13:51:44;;;;;;;2.28;1.25;;;;;;;;;;5096039;28;20055;-61
2023/12/24 13:54:11;;;;;;;2.22;1.38;;;;;;;;;;5092670;28;20540;-62
2023/12/24 13:56:38;;;;;;;1.92;1.20;;;;;;;;;;5075616;28;20048;-61
2023/12/24 13:59:05;;;;;;;2.60;1.58;;;;;;;;;;5076169;28;20048;-61
2023/12/24 14:01:32;;;;;;;2.28;1.60;;;;;;;;;;5076366;28;20059;-61
2023/12/24 14:03:59;;;;;;;2.42;1.48;;;;;;;;;;5093721;28;20083;-61
2023/12/24 14:06:28;;;;;;;4.10;1.70;;;;;;;;;;5095699;28;20059;-61
2023/12/24 14:08:55;;;;;;;2.38;1.60;;;;;;;;;;5095303;28;20052;-61
2023/12/24 14:11:23;;;;;;;2.28;1.60;;;;;;;;;;5095398;28;20052;-62
2023/12/24 14:13:50;;;;;;;2.95;1.20;;;;;;;;;;5095467;28;20052;-61
2023/12/24 14:16:16;;;;;;;1.83;1.40;;;;;;;;;;5094958;28;20061;-61
2023/12/24 14:18:43;;;;;;;2.80;1.30;;;;;;;;;;5075906;28;20052;-61
2023/12/24 14:21:10;;;;;;;2.25;1.52;;;;;;;;;;5075309;28;20052;-61
2023/12/24 14:23:38;;;;;;;3.22;1.40;;;;;;;;;;5075303;28;20052;-60
2023/12/24 14:26:05;;;;;;;3.40;1.58;;;;;;;;;;5074589;28;20417;-60
2023/12/24 14:28:32;;;;;;;2.63;1.70;;;;;;;;;;5074881;28;20056;-60
2023/12/24 14:30:59;;;;;;;1.52;1.27;;;;;;;;;;5074882;28;20048;-60
2023/12/24 14:33:25;;;;;;;2.38;1.67;;;;;;;;;;5075683;28;20057;-60
2023/12/24 14:35:52;;;;;;;1.60;1.20;;;;;;;;;;5075091;28;20052;-60
2023/12/24 14:38:19;;;;;;;1.77;1.40;;;;;;;;;;5075272;28;20056;-60
2023/12/24 14:40:47;;;;;;;4.45;1.30;;;;;;;;;;5074668;28;20057;-60
2023/12/24 14:43:14;;;;;;;1.60;1.30;;;;;;;;;;5093933;28;20075;-60
2023/12/24 14:45:41;;;;;;;3.17;1.60;;;;;;;;;;5093831;28;20063;-60